Time;durP1;ratioP1;P1;durP2;ratioP2;P2;SDS_P1;SDS_P2;PMS_P1;PMS_P2;Temp;Humidity;BMP_temperature;BMP_pressure;BME280_temperature;BME280_humidity;BME280_pressure;Samples;Min_cycle;Max_cycle;Signal;HPM_P1;HPM_P2
2023/06/16 00:00:20;;;;;;;0.50;0.30;;;17.80;99.90;;;;;;5034865;28;20446;-77
2023/06/16 00:02:48;;;;;;;0.50;0.30;;;17.90;99.90;;;;;;5034847;28;20476;-79
2023/06/16 00:05:15;;;;;;;0.50;0.40;;;17.80;99.90;;;;;;5035466;28;20516;-79
2023/06/16 00:07:43;;;;;;;0.80;0.60;;;17.80;99.90;;;;;;5034892;28;20484;-78
2023/06/16 00:10:11;;;;;;;0.50;0.30;;;17.90;99.90;;;;;;5034777;28;20457;-79
2023/06/16 00:12:40;;;;;;;0.50;0.30;;;17.80;99.90;;;;;;5034621;28;20557;-79
2023/06/16 00:15:09;;;;;;;0.50;0.30;;;17.80;99.90;;;;;;5034780;28;20477;-79
2023/06/16 00:17:44;;;;;;;0.50;0.30;;;17.80;99.90;;;;;;5034470;28;20448;-79
2023/06/16 00:20:11;;;;;;;0.50;0.30;;;17.80;99.90;;;;;;5034765;28;20445;-79
2023/06/16 00:22:39;;;;;;;0.50;0.30;;;17.70;99.90;;;;;;5034447;28;20462;-79
2023/06/16 00:25:08;;;;;;;0.50;0.30;;;17.60;99.90;;;;;;5034562;28;20496;-79
2023/06/16 00:27:35;;;;;;;0.50;0.40;;;17.60;99.90;;;;;;5034442;28;20456;-79
2023/06/16 00:30:03;;;;;;;0.50;0.40;;;17.50;99.90;;;;;;5033962;28;20492;-79
2023/06/16 00:32:30;;;;;;;0.80;0.50;;;17.40;99.90;;;;;;5034861;28;20472;-80
2023/06/16 00:34:56;;;;;;;0.50;0.30;;;17.40;99.90;;;;;;5026311;28;20470;-79
2023/06/16 00:37:23;;;;;;;0.50;0.30;;;17.30;99.90;;;;;;5034129;28;20482;-79
2023/06/16 00:39:50;;;;;;;0.50;0.30;;;17.30;99.90;;;;;;5033881;28;20457;-79
2023/06/16 00:42:18;;;;;;;0.83;0.77;;;17.20;99.90;;;;;;5034473;28;20445;-78
2023/06/16 00:44:45;;;;;;;0.50;0.30;;;17.20;99.90;;;;;;5033926;28;20549;-79
2023/06/16 00:47:12;;;;;;;0.50;0.30;;;17.20;99.90;;;;;;5033872;28;20440;-79
2023/06/16 00:49:40;;;;;;;0.50;0.30;;;17.20;99.90;;;;;;5033406;28;20944;-79
2023/06/16 00:52:10;;;;;;;0.50;0.30;;;17.20;99.90;;;;;;5033829;28;20448;-76
2023/06/16 00:54:37;;;;;;;0.50;0.30;;;17.10;99.90;;;;;;5033636;28;20438;-79
2023/06/16 00:57:06;;;;;;;3.90;1.07;;;17.10;99.90;;;;;;5033346;28;20457;-79
2023/06/16 00:59:35;;;;;;;0.50;0.30;;;17.10;99.90;;;;;;5033566;28;20496;-77
2023/06/16 01:02:02;;;;;;;0.50;0.40;;;17.10;99.90;;;;;;5033196;28;20446;-79
2023/06/16 01:04:29;;;;;;;0.50;0.30;;;17.00;99.90;;;;;;5038712;28;20506;-81
2023/06/16 01:07:03;;;;;;;0.50;0.40;;;17.00;99.90;;;;;;5041994;28;20449;-82
2023/06/16 01:09:39;;;;;;;0.50;0.30;;;17.00;99.90;;;;;;5042207;28;20503;-80
2023/06/16 01:12:12;;;;;;;0.50;0.40;;;17.00;99.90;;;;;;5034860;28;20442;-79
2023/06/16 01:14:49;;;;;;;0.50;0.40;;;17.00;99.90;;;;;;5032806;28;20446;-79
2023/06/16 01:17:17;;;;;;;0.50;0.40;;;17.00;99.90;;;;;;5033083;28;21057;-77
2023/06/16 01:19:50;;;;;;;0.50;0.40;;;16.90;99.90;;;;;;5033313;28;20445;-80
2023/06/16 01:22:32;;;;;;;0.50;0.40;;;16.90;99.90;;;;;;5035514;28;20446;-79
2023/06/16 01:25:04;;;;;;;0.50;0.40;;;16.90;99.90;;;;;;5037263;28;21006;-79
2023/06/16 01:27:32;;;;;;;0.50;0.40;;;16.90;99.90;;;;;;5037230;28;20941;-79
2023/06/16 01:30:01;;;;;;;0.50;0.30;;;16.90;99.90;;;;;;5036798;28;20444;-78
2023/06/16 01:32:29;;;;;;;0.50;0.30;;;16.80;99.90;;;;;;5037170;28;20913;-79
2023/06/16 01:34:57;;;;;;;0.50;0.40;;;16.80;99.90;;;;;;5036939;28;20778;-78
2023/06/16 01:37:25;;;;;;;0.50;0.40;;;16.80;99.90;;;;;;5036787;28;20544;-79
2023/06/16 01:39:53;;;;;;;0.50;0.30;;;16.70;99.90;;;;;;5037235;28;20442;-79
2023/06/16 01:42:23;;;;;;;1.03;0.93;;;16.70;99.90;;;;;;5036660;28;20460;-79
2023/06/16 01:44:50;;;;;;;0.70;0.70;;;16.70;99.90;;;;;;5037287;28;20537;-78
2023/06/16 01:47:17;;;;;;;0.50;0.40;;;16.70;99.90;;;;;;5036763;28;20809;-77
2023/06/16 01:49:44;;;;;;;0.50;0.40;;;16.60;99.90;;;;;;5036939;28;20532;-79
2023/06/16 01:52:11;;;;;;;0.50;0.40;;;16.60;99.90;;;;;;5036695;28;20446;-79
2023/06/16 01:54:38;;;;;;;0.50;0.30;;;16.50;99.90;;;;;;5036397;28;20545;-79
2023/06/16 01:57:05;;;;;;;0.50;0.30;;;16.50;99.90;;;;;;5036157;28;20560;-79
2023/06/16 01:59:34;;;;;;;0.50;0.33;;;16.50;99.90;;;;;;5037022;28;20533;-79
2023/06/16 02:02:09;;;;;;;0.50;0.40;;;16.40;99.90;;;;;;5036361;28;20434;-79
2023/06/16 02:04:40;;;;;;;0.50;0.40;;;16.40;99.90;;;;;;5036551;28;20520;-79
2023/06/16 02:07:10;;;;;;;0.50;0.40;;;16.40;99.90;;;;;;5028940;28;20449;-79
2023/06/16 02:09:39;;;;;;;0.50;0.40;;;16.40;99.90;;;;;;5036549;28;20980;-78
2023/06/16 02:12:09;;;;;;;0.50;0.40;;;16.30;99.90;;;;;;5028495;28;20439;-79
2023/06/16 02:14:38;;;;;;;0.50;0.37;;;16.30;99.90;;;;;;5036194;28;20450;-79
2023/06/16 02:17:06;;;;;;;0.50;0.40;;;16.30;99.90;;;;;;5027917;28;20508;-78
2023/06/16 02:19:33;;;;;;;0.50;0.40;;;16.20;99.90;;;;;;5036638;28;20512;-79
2023/06/16 02:22:01;;;;;;;0.50;0.30;;;16.20;99.90;;;;;;5036027;28;20442;-79
2023/06/16 02:24:28;;;;;;;0.50;0.40;;;16.20;99.90;;;;;;5036358;28;20468;-79
2023/06/16 02:26:55;;;;;;;0.50;0.40;;;16.20;99.90;;;;;;5035752;28;20442;-79
2023/06/16 02:29:22;;;;;;;0.50;0.40;;;16.20;99.90;;;;;;5036217;28;20442;-79
2023/06/16 02:31:51;;;;;;;0.50;0.40;;;16.20;99.90;;;;;;5035478;28;20458;-79
2023/06/16 02:34:18;;;;;;;0.50;0.40;;;16.20;99.90;;;;;;5041533;28;20461;-82
2023/06/16 02:36:46;;;;;;;0.50;0.40;;;16.20;99.90;;;;;;5044705;28;20498;-82
2023/06/16 02:39:14;;;;;;;1.17;1.07;;;16.20;99.90;;;;;;5044961;28;20450;-82
2023/06/16 02:41:42;;;;;;;0.50;0.30;;;16.20;99.90;;;;;;5043735;28;20446;-81
2023/06/16 02:44:09;;;;;;;0.50;0.30;;;16.10;99.90;;;;;;5044736;28;20489;-81
2023/06/16 02:46:36;;;;;;;0.50;0.40;;;16.10;99.90;;;;;;5044967;28;20438;-81
2023/06/16 02:49:04;;;;;;;0.50;0.40;;;16.10;99.90;;;;;;5044855;28;20545;-81
2023/06/16 02:51:31;;;;;;;0.60;0.50;;;16.10;99.90;;;;;;5045099;28;20890;-81
2023/06/16 02:53:59;;;;;;;0.50;0.50;;;16.00;99.90;;;;;;5044004;28;20501;-81
2023/06/16 02:56:28;;;;;;;0.50;0.40;;;16.00;99.90;;;;;;5046838;28;20478;-82
2023/06/16 02:58:55;;;;;;;0.50;0.40;;;16.00;99.90;;;;;;5045486;28;20450;-82
2023/06/16 03:01:24;;;;;;;0.50;0.37;;;16.00;99.90;;;;;;5046369;28;20446;-79
2023/06/16 03:03:51;;;;;;;0.50;0.40;;;16.00;99.90;;;;;;5046156;28;20470;-81
2023/06/16 03:06:20;;;;;;;0.50;0.40;;;16.00;99.90;;;;;;5046275;28;20442;-81
2023/06/16 03:08:47;;;;;;;0.50;0.40;;;15.90;99.90;;;;;;5047760;28;20438;-83
2023/06/16 03:11:14;;;;;;;0.50;0.40;;;15.90;99.90;;;;;;5047619;28;20455;-81
2023/06/16 03:13:41;;;;;;;0.50;0.40;;;15.90;99.90;;;;;;5047292;28;20458;-83
2023/06/16 03:16:08;;;;;;;0.50;0.40;;;15.90;99.90;;;;;;5041184;28;20474;-83
2023/06/16 03:18:35;;;;;;;0.50;0.40;;;15.90;99.90;;;;;;5047413;28;20453;-80
2023/06/16 03:21:02;;;;;;;0.50;0.40;;;15.90;99.90;;;;;;5047352;28;20493;-82
2023/06/16 03:23:30;;;;;;;0.50;0.40;;;15.90;99.90;;;;;;5046946;28;20462;-82
2023/06/16 03:25:58;;;;;;;0.50;0.40;;;15.90;99.90;;;;;;5046847;28;20438;-82
2023/06/16 03:28:25;;;;;;;0.50;0.33;;;15.80;99.90;;;;;;5046416;28;20868;-83
2023/06/16 03:30:52;;;;;;;0.50;0.40;;;15.90;99.90;;;;;;5044463;28;20446;-80
2023/06/16 03:33:19;;;;;;;0.50;0.40;;;15.80;99.90;;;;;;5042615;28;20494;-79
2023/06/16 03:35:46;;;;;;;0.50;0.40;;;15.80;99.90;;;;;;5041526;28;20505;-80
2023/06/16 03:38:13;;;;;;;0.80;0.60;;;15.80;99.90;;;;;;5043127;28;20438;-80
2023/06/16 03:40:41;;;;;;;0.50;0.40;;;15.80;99.90;;;;;;5041347;28;20473;-80
2023/06/16 03:43:08;;;;;;;0.70;0.50;;;15.80;99.90;;;;;;5034839;28;20486;-80
2023/06/16 03:45:35;;;;;;;0.50;0.40;;;15.80;99.90;;;;;;5041904;28;20474;-80
2023/06/16 03:48:02;;;;;;;0.50;0.30;;;15.80;99.90;;;;;;5041646;28;20498;-80
2023/06/16 03:50:29;;;;;;;0.50;0.50;;;15.80;99.90;;;;;;5042542;28;20470;-80
2023/06/16 03:52:56;;;;;;;0.50;0.40;;;15.80;99.90;;;;;;5041584;28;20472;-80
2023/06/16 03:55:23;;;;;;;0.50;0.40;;;15.80;99.90;;;;;;5042054;28;20466;-80
2023/06/16 03:57:51;;;;;;;0.50;0.30;;;15.80;99.90;;;;;;5041563;28;20653;-81
2023/06/16 04:00:19;;;;;;;0.50;0.40;;;15.80;99.90;;;;;;5042761;28;20494;-80
2023/06/16 04:02:46;;;;;;;0.50;0.40;;;15.90;99.90;;;;;;5041869;28;20465;-78
2023/06/16 04:05:13;;;;;;;0.50;0.33;;;15.80;99.90;;;;;;5042325;28;20446;-76
2023/06/16 04:07:40;;;;;;;0.50;0.33;;;15.90;99.90;;;;;;5041709;28;20528;-81
2023/06/16 04:10:08;;;;;;;0.83;0.80;;;15.90;99.90;;;;;;5041930;28;20906;-80
2023/06/16 04:12:34;;;;;;;0.50;0.40;;;15.90;99.90;;;;;;5041534;28;20489;-80
2023/06/16 04:15:03;;;;;;;0.50;0.40;;;15.90;99.90;;;;;;5039663;28;20448;-80
2023/06/16 04:17:30;;;;;;;0.50;0.30;;;15.90;99.90;;;;;;5040407;28;20477;-79
2023/06/16 04:19:57;;;;;;;0.50;0.30;;;16.00;99.90;;;;;;5040090;28;20484;-80
2023/06/16 04:22:23;;;;;;;0.50;0.30;;;16.00;99.90;;;;;;5040515;28;20494;-80
2023/06/16 04:24:50;;;;;;;0.50;0.40;;;16.10;99.90;;;;;;5039911;28;20529;-80
2023/06/16 04:27:17;;;;;;;0.60;0.60;;;16.10;99.90;;;;;;5041062;28;20429;-78
2023/06/16 04:29:46;;;;;;;0.50;0.30;;;16.20;99.90;;;;;;5041673;28;20468;-81
2023/06/16 04:32:15;;;;;;;1.03;1.03;;;16.20;99.90;;;;;;5043043;28;20470;-80
2023/06/16 04:34:42;;;;;;;0.70;0.70;;;16.20;99.90;;;;;;5042232;28;20430;-80
2023/06/16 04:37:11;;;;;;;0.50;0.40;;;16.20;99.90;;;;;;5040409;28;20473;-80
2023/06/16 04:39:38;;;;;;;4.03;1.00;;;16.30;99.90;;;;;;5041244;28;20454;-80
2023/06/16 04:42:08;;;;;;;0.50;0.40;;;16.30;99.90;;;;;;5041426;28;20457;-77
2023/06/16 04:44:34;;;;;;;0.50;0.40;;;16.40;99.90;;;;;;5041486;28;20473;-81
2023/06/16 04:47:01;;;;;;;0.50;0.40;;;16.40;99.90;;;;;;5041723;28;20541;-79
2023/06/16 04:49:30;;;;;;;0.50;0.50;;;16.40;99.90;;;;;;5041738;28;20493;-80
2023/06/16 04:51:57;;;;;;;0.50;0.40;;;16.40;99.90;;;;;;5040635;28;20525;-80
2023/06/16 04:54:24;;;;;;;0.50;0.40;;;16.40;99.90;;;;;;5041236;28;20466;-80
2023/06/16 04:56:51;;;;;;;0.50;0.40;;;16.40;99.90;;;;;;5040762;28;20478;-79
2023/06/16 04:59:18;;;;;;;0.50;0.40;;;16.50;99.90;;;;;;5041550;28;20553;-79
2023/06/16 05:01:45;;;;;;;0.50;0.37;;;16.50;99.90;;;;;;5041841;28;20446;-80
2023/06/16 05:04:11;;;;;;;0.50;0.37;;;16.50;99.90;;;;;;5041109;28;20469;-75
2023/06/16 05:06:40;;;;;;;0.50;0.40;;;16.50;99.90;;;;;;5041258;28;20466;-80
2023/06/16 05:09:07;;;;;;;0.50;0.30;;;16.60;99.90;;;;;;5041848;28;20506;-80
2023/06/16 05:11:33;;;;;;;0.50;0.30;;;16.60;99.90;;;;;;5041014;28;20443;-80
2023/06/16 05:14:00;;;;;;;0.50;0.40;;;16.70;99.90;;;;;;5042053;28;20489;-78
2023/06/16 05:16:27;;;;;;;0.50;0.40;;;16.70;99.90;;;;;;5041697;28;21005;-80
2023/06/16 05:18:54;;;;;;;0.50;0.30;;;16.80;99.90;;;;;;5041047;28;20444;-80
2023/06/16 05:21:25;;;;;;;0.50;0.30;;;16.90;99.90;;;;;;5041159;28;20449;-80
2023/06/16 05:23:53;;;;;;;0.50;0.30;;;16.90;99.90;;;;;;5041475;28;20476;-80
2023/06/16 05:26:21;;;;;;;0.50;0.30;;;17.00;99.90;;;;;;5041390;28;20469;-80
2023/06/16 05:28:48;;;;;;;0.50;0.40;;;17.10;99.90;;;;;;5041719;28;20442;-80
2023/06/16 05:31:15;;;;;;;0.50;0.40;;;17.20;99.90;;;;;;5033651;28;20699;-79
2023/06/16 05:33:42;;;;;;;0.50;0.40;;;17.30;99.90;;;;;;5041377;28;20933;-80
2023/06/16 05:36:09;;;;;;;0.53;0.47;;;17.30;99.90;;;;;;5041474;28;20518;-79
2023/06/16 05:38:35;;;;;;;0.50;0.30;;;17.40;99.90;;;;;;5041180;28;21017;-80
2023/06/16 05:41:04;;;;;;;0.50;0.40;;;17.50;99.90;;;;;;5041429;28;20442;-80
2023/06/16 05:43:30;;;;;;;0.50;0.40;;;17.70;99.90;;;;;;5041261;28;20556;-80
2023/06/16 05:45:57;;;;;;;0.50;0.37;;;17.80;99.90;;;;;;5040391;28;20521;-80
2023/06/16 05:48:24;;;;;;;0.50;0.40;;;17.90;99.90;;;;;;5041113;28;21091;-80
2023/06/16 05:50:51;;;;;;;0.50;0.40;;;18.00;99.90;;;;;;5041288;28;20517;-78
2023/06/16 05:53:17;;;;;;;0.60;0.50;;;18.20;99.90;;;;;;5041266;28;20465;-79
2023/06/16 05:55:44;;;;;;;0.50;0.30;;;18.30;99.90;;;;;;5040585;28;20536;-80
2023/06/16 05:58:12;;;;;;;0.50;0.40;;;18.30;99.90;;;;;;5041414;28;20542;-81
2023/06/16 06:00:40;;;;;;;1.57;1.27;;;18.30;99.90;;;;;;5042923;28;20430;-81
2023/06/16 06:03:07;;;;;;;0.50;0.40;;;18.40;99.90;;;;;;5042587;28;20466;-82
2023/06/16 06:05:34;;;;;;;0.50;0.33;;;18.50;99.90;;;;;;5043572;28;20861;-82
2023/06/16 06:08:01;;;;;;;1.27;1.13;;;18.70;99.90;;;;;;5043958;28;20458;-80
2023/06/16 06:10:27;;;;;;;0.50;0.30;;;18.80;99.90;;;;;;5045794;28;20886;-81
2023/06/16 06:12:54;;;;;;;0.60;0.40;;;19.00;99.90;;;;;;5046380;28;21032;-81
2023/06/16 06:15:22;;;;;;;0.50;0.40;;;19.10;99.90;;;;;;5046754;28;20465;-81
2023/06/16 06:17:49;;;;;;;0.50;0.30;;;19.30;99.90;;;;;;5046367;28;20541;-82
2023/06/16 06:20:16;;;;;;;0.50;0.30;;;19.60;99.90;;;;;;5045994;28;20435;-80
2023/06/16 06:22:43;;;;;;;0.50;0.30;;;19.80;99.90;;;;;;5046465;28;21100;-81
2023/06/16 06:25:13;;;;;;;0.50;0.30;;;20.00;99.90;;;;;;5046564;28;20603;-81
2023/06/16 06:27:39;;;;;;;0.50;0.30;;;20.30;99.90;;;;;;5046174;28;20453;-81
2023/06/16 06:30:07;;;;;;;0.50;0.30;;;20.50;99.90;;;;;;5045731;28;20545;-81
2023/06/16 06:32:37;;;;;;;0.50;0.30;;;20.70;98.50;;;;;;5046152;28;20454;-83
2023/06/16 06:35:04;;;;;;;9.93;2.63;;;20.90;97.90;;;;;;5044610;28;20446;-80
2023/06/16 06:37:31;;;;;;;0.50;0.30;;;21.20;95.20;;;;;;5044695;28;20545;-80
2023/06/16 06:39:58;;;;;;;0.50;0.40;;;21.40;92.10;;;;;;5044359;28;20470;-80
2023/06/16 06:42:26;;;;;;;0.50;0.30;;;21.70;90.40;;;;;;5045703;28;20473;-80
2023/06/16 06:44:53;;;;;;;0.50;0.30;;;22.00;89.90;;;;;;5044666;28;20442;-81
2023/06/16 06:47:21;;;;;;;0.60;0.50;;;22.70;88.60;;;;;;5037332;28;20517;-80
2023/06/16 06:49:49;;;;;;;0.50;0.30;;;23.30;81.10;;;;;;5044942;28;20466;-80
2023/06/16 06:52:17;;;;;;;0.50;0.30;;;24.50;77.40;;;;;;5045066;28;20995;-80
2023/06/16 06:54:43;;;;;;;0.50;0.47;;;24.90;70.50;;;;;;5045130;28;20449;-82
2023/06/16 06:57:11;;;;;;;0.50;0.40;;;25.00;66.30;;;;;;5044612;28;20550;-81
2023/06/16 06:59:39;;;;;;;0.50;0.30;;;25.30;63.20;;;;;;5046097;28;20444;-82
2023/06/16 07:02:07;;;;;;;0.50;0.40;;;25.80;59.60;;;;;;5045022;28;20446;-81
2023/06/16 07:04:33;;;;;;;0.50;0.30;;;26.00;61.60;;;;;;5044581;28;20466;-81
2023/06/16 07:07:03;;;;;;;0.50;0.30;;;26.50;60.90;;;;;;5044335;28;20446;-80
2023/06/16 07:09:30;;;;;;;0.50;0.40;;;26.80;58.00;;;;;;5044715;28;20514;-81
2023/06/16 07:11:57;;;;;;;0.50;0.30;;;26.80;55.80;;;;;;5044751;28;20462;-81
2023/06/16 07:14:24;;;;;;;25.77;2.77;;;26.60;55.80;;;;;;5044253;28;20961;-81
2023/06/16 07:16:50;;;;;;;0.50;0.30;;;26.90;57.70;;;;;;5044042;28;22919;-81
2023/06/16 07:19:17;;;;;;;0.50;0.30;;;27.20;58.00;;;;;;5044099;28;20443;-81
2023/06/16 07:21:44;;;;;;;0.93;0.60;;;27.80;56.30;;;;;;5045269;28;20446;-81
2023/06/16 07:24:12;;;;;;;0.50;0.30;;;28.30;56.70;;;;;;5044802;28;20498;-82
2023/06/16 07:26:39;;;;;;;1.13;1.07;;;28.50;55.10;;;;;;5045226;28;20438;-80
2023/06/16 07:29:06;;;;;;;1.00;0.70;;;28.90;53.80;;;;;;5045687;28;20537;-80
2023/06/16 07:31:33;;;;;;;0.50;0.40;;;29.30;52.00;;;;;;5045525;28;20953;-82
2023/06/16 07:34:00;;;;;;;1.03;1.03;;;29.20;51.50;;;;;;5044154;28;20462;-82
2023/06/16 07:36:27;;;;;;;0.50;0.30;;;29.20;53.40;;;;;;5044698;28;20434;-81
2023/06/16 07:38:53;;;;;;;0.93;0.50;;;29.60;52.90;;;;;;5044620;28;20589;-82
2023/06/16 07:41:22;;;;;;;0.50;0.40;;;30.00;52.50;;;;;;5045480;28;20517;-82
2023/06/16 07:43:49;;;;;;;0.50;0.30;;;30.20;52.50;;;;;;5045228;28;20989;-82
2023/06/16 07:46:17;;;;;;;0.50;0.40;;;30.40;51.50;;;;;;5045297;28;20497;-78
2023/06/16 07:48:44;;;;;;;0.50;0.40;;;30.30;49.90;;;;;;5044473;28;20442;-79
2023/06/16 07:51:10;;;;;;;0.87;0.83;;;30.60;50.70;;;;;;5044588;28;20446;-82
2023/06/16 07:53:39;;;;;;;0.50;0.30;;;30.20;49.90;;;;;;5045107;28;20493;-82
2023/06/16 07:56:07;;;;;;;0.93;0.93;;;30.20;51.00;;;;;;5046298;28;20472;-82
2023/06/16 07:58:38;;;;;;;0.50;0.30;;;30.30;51.60;;;;;;5045912;28;20466;-81
2023/06/16 08:01:05;;;;;;;0.50;0.30;;;30.60;52.00;;;;;;5045445;28;20438;-82
2023/06/16 08:03:31;;;;;;;0.50;0.30;;;30.60;49.60;;;;;;5045253;28;20517;-82
2023/06/16 08:05:58;;;;;;;0.50;0.30;;;31.50;50.30;;;;;;5043766;28;20449;-80
2023/06/16 08:08:27;;;;;;;0.50;0.30;;;31.80;47.70;;;;;;5045150;28;20451;-82
2023/06/16 08:10:55;;;;;;;0.50;0.30;;;32.20;49.30;;;;;;5045101;28;20450;-81
2023/06/16 08:13:22;;;;;;;0.67;0.40;;;32.90;47.20;;;;;;5045237;28;20466;-82
2023/06/16 08:15:50;;;;;;;0.50;0.30;;;33.00;45.20;;;;;;5045058;28;20449;-81
2023/06/16 08:18:19;;;;;;;0.50;0.50;;;33.20;47.90;;;;;;5044604;28;20470;-82
2023/06/16 08:20:46;;;;;;;1.27;1.17;;;33.30;46.50;;;;;;5045365;28;20442;-82
2023/06/16 08:23:12;;;;;;;0.50;0.30;;;33.70;45.70;;;;;;5044552;28;20521;-77
2023/06/16 08:25:39;;;;;;;0.50;0.40;;;33.60;44.20;;;;;;5045654;28;20505;-81
2023/06/16 08:28:07;;;;;;;0.50;0.30;;;33.40;44.30;;;;;;5044378;28;20505;-82
2023/06/16 08:30:34;;;;;;;0.60;0.50;;;33.00;44.10;;;;;;5043820;28;20439;-81
2023/06/16 08:33:02;;;;;;;0.50;0.33;;;33.10;46.30;;;;;;5044822;28;20469;-80
2023/06/16 08:35:29;;;;;;;0.50;0.30;;;33.90;44.80;;;;;;5045720;28;20810;-82
2023/06/16 08:37:56;;;;;;;0.50;0.40;;;34.20;43.80;;;;;;5044396;28;20561;-82
2023/06/16 08:40:23;;;;;;;0.73;0.73;;;34.10;45.10;;;;;;5043614;28;20443;-77
2023/06/16 08:42:54;;;;;;;0.50;0.33;;;34.50;42.80;;;;;;5045391;28;20468;-80
2023/06/16 08:45:21;;;;;;;0.47;0.30;;;34.80;43.60;;;;;;5044600;28;20474;-81
2023/06/16 08:47:48;;;;;;;0.50;0.50;;;35.00;43.80;;;;;;5044147;28;20829;-81
2023/06/16 08:50:21;;;;;;;0.90;0.90;;;35.10;43.70;;;;;;5044150;28;20613;-82
2023/06/16 08:52:51;;;;;;;1.20;1.17;;;34.90;44.00;;;;;;5044870;28;20470;-82
2023/06/16 08:55:19;;;;;;;0.50;0.30;;;34.50;43.60;;;;;;5044026;28;20477;-81
2023/06/16 08:57:47;;;;;;;0.50;0.30;;;34.20;42.40;;;;;;5044261;28;20478;-81
2023/06/16 09:00:15;;;;;;;0.50;0.30;;;33.70;43.50;;;;;;5043651;28;20499;-80
2023/06/16 09:02:44;;;;;;;2.10;2.00;;;33.80;44.30;;;;;;5044209;28;20572;-82
2023/06/16 09:05:11;;;;;;;0.60;0.40;;;34.00;43.90;;;;;;5044453;28;20446;-82
2023/06/16 09:07:41;;;;;;;0.50;0.40;;;34.50;43.00;;;;;;5044184;28;20485;-83
2023/06/16 09:10:08;;;;;;;0.50;0.40;;;35.10;42.20;;;;;;5044840;28;20442;-81
2023/06/16 09:12:36;;;;;;;0.50;0.40;;;35.10;42.10;;;;;;5045056;28;20458;-82
2023/06/16 09:15:08;;;;;;;0.50;0.30;;;35.90;42.40;;;;;;5044599;28;20866;-79
2023/06/16 09:17:35;;;;;;;1.33;1.33;;;36.50;42.60;;;;;;5044857;28;21206;-82
2023/06/16 09:20:06;;;;;;;0.60;0.50;;;36.60;41.80;;;;;;5044869;28;20453;-81
2023/06/16 09:22:33;;;;;;;0.40;0.30;;;36.80;39.80;;;;;;5037615;28;20498;-83
2023/06/16 09:25:04;;;;;;;0.40;0.40;;;36.90;39.60;;;;;;5044641;28;20448;-81
2023/06/16 09:27:44;;;;;;;19.23;3.80;;;37.00;39.50;;;;;;5036909;28;20510;-81
2023/06/16 09:30:13;;;;;;;0.40;0.30;;;37.20;40.60;;;;;;5044482;28;20442;-82
2023/06/16 09:32:40;;;;;;;0.40;0.30;;;37.70;39.40;;;;;;5045737;28;20468;-83
2023/06/16 09:35:18;;;;;;;0.40;0.30;;;37.60;38.10;;;;;;5045282;28;20490;-80
2023/06/16 09:37:45;;;;;;;1.43;1.00;;;37.70;38.00;;;;;;5045234;28;20470;-81
2023/06/16 09:40:16;;;;;;;1.13;1.13;;;38.10;37.20;;;;;;5044995;28;20478;-80
2023/06/16 09:42:44;;;;;;;0.73;0.73;;;38.00;38.00;;;;;;5046273;28;20491;-82
2023/06/16 09:45:13;;;;;;;0.40;0.30;;;38.10;38.50;;;;;;5048408;28;20459;-81
2023/06/16 09:47:44;;;;;;;0.90;0.83;;;38.30;36.60;;;;;;5047929;28;20435;-83
2023/06/16 09:50:13;;;;;;;0.60;0.60;;;38.20;39.50;;;;;;5047982;28;20436;-82
2023/06/16 09:52:42;;;;;;;0.40;0.30;;;38.50;38.20;;;;;;5049074;28;20467;-84
2023/06/16 09:55:09;;;;;;;0.83;0.50;;;38.60;37.30;;;;;;5048834;28;20447;-82
2023/06/16 09:57:38;;;;;;;5.20;2.10;;;38.40;38.00;;;;;;5048531;28;20437;-82
2023/06/16 10:00:09;;;;;;;0.50;0.50;;;38.20;37.30;;;;;;5047283;28;20867;-79
2023/06/16 10:02:39;;;;;;;0.60;0.60;;;37.50;36.60;;;;;;5048182;28;20509;-82
2023/06/16 10:05:10;;;;;;;1.33;0.70;;;37.80;39.10;;;;;;5048454;28;20435;-80
2023/06/16 10:07:38;;;;;;;0.70;0.70;;;38.00;37.70;;;;;;5054420;22;20491;-81
2023/06/16 10:10:08;;;;;;;0.40;0.30;;;37.80;38.60;;;;;;5040196;28;20949;-81
2023/06/16 10:12:37;;;;;;;0.40;0.40;;;37.90;38.60;;;;;;5033450;28;20490;-82
2023/06/16 10:15:04;;;;;;;4.30;1.63;;;38.20;39.10;;;;;;5040495;28;20450;-81
2023/06/16 10:17:32;;;;;;;0.83;0.50;;;38.40;37.70;;;;;;5033675;28;20463;-81
2023/06/16 10:19:59;;;;;;;0.50;0.37;;;38.20;38.10;;;;;;5039974;28;20457;-81
2023/06/16 10:22:26;;;;;;;0.70;0.70;;;38.20;36.10;;;;;;5040904;28;20457;-81
2023/06/16 10:24:53;;;;;;;0.40;0.30;;;37.80;36.50;;;;;;5041098;28;20443;-79
2023/06/16 10:27:22;;;;;;;0.50;0.47;;;38.00;37.60;;;;;;5041741;28;20463;-80
2023/06/16 10:29:51;;;;;;;0.40;0.40;;;37.60;37.70;;;;;;5039607;28;20451;-81
2023/06/16 10:32:18;;;;;;;0.50;0.50;;;37.50;37.40;;;;;;5039307;28;20444;-81
2023/06/16 10:34:51;;;;;;;0.50;0.40;;;37.60;37.90;;;;;;5039993;28;20531;-79
2023/06/16 10:37:22;;;;;;;0.80;0.50;;;37.30;38.10;;;;;;5039251;28;20558;-80
2023/06/16 10:39:49;;;;;;;0.40;0.30;;;37.50;38.70;;;;;;5039158;28;20482;-80
2023/06/16 10:42:17;;;;;;;0.40;0.30;;;37.50;39.00;;;;;;5038698;28;20447;-80
2023/06/16 10:44:44;;;;;;;0.50;0.40;;;37.50;38.00;;;;;;5038971;28;20965;-80
2023/06/16 10:47:54;;;;;;;0.50;0.50;;;37.40;38.20;;;;;;5038297;28;20661;-81
2023/06/16 10:50:29;;;;;;;0.40;0.40;;;37.70;36.60;;;;;;5038700;28;20447;-81
2023/06/16 10:52:56;;;;;;;0.40;0.30;;;38.10;38.80;;;;;;5039024;28;20478;-79
2023/06/16 10:55:33;;;;;;;0.47;0.43;;;38.00;38.80;;;;;;5038662;28;20884;-81
2023/06/16 10:58:26;;;;;;;0.90;0.40;;;38.30;38.00;;;;;;5038991;28;21043;-81
2023/06/16 11:01:24;;;;;;;1.27;0.60;;;37.80;37.40;;;;;;5030274;28;20553;-80
2023/06/16 11:04:01;;;;;;;0.40;0.30;;;37.50;37.90;;;;;;5029270;28;20446;-81
2023/06/16 11:06:28;;;;;;;0.40;0.30;;;37.50;37.60;;;;;;5037904;28;20462;-80
2023/06/16 11:08:57;;;;;;;0.50;0.40;;;38.00;38.50;;;;;;5038562;28;20476;-80
2023/06/16 11:11:33;;;;;;;2.20;1.60;;;37.80;36.90;;;;;;5037422;28;20447;-80
2023/06/16 11:14:01;;;;;;;0.60;0.50;;;37.90;37.30;;;;;;5039026;28;20529;-80
2023/06/16 11:16:28;;;;;;;0.40;0.30;;;37.80;36.60;;;;;;5039103;28;20451;-80
2023/06/16 11:18:58;;;;;;;0.90;0.47;;;37.70;37.10;;;;;;5037832;28;20571;-82
2023/06/16 11:21:28;;;;;;;0.40;0.30;;;38.20;39.30;;;;;;5038196;28;20447;-81
2023/06/16 11:24:07;;;;;;;0.40;0.30;;;37.60;37.40;;;;;;5038223;28;20531;-81
2023/06/16 11:26:34;;;;;;;0.40;0.30;;;37.50;38.00;;;;;;5037704;28;20534;-79
2023/06/16 11:29:01;;;;;;;1.10;0.60;;;37.50;37.50;;;;;;5038106;28;20448;-81
2023/06/16 11:31:29;;;;;;;0.40;0.30;;;38.00;38.90;;;;;;5037457;28;20469;-81
2023/06/16 11:33:58;;;;;;;0.40;0.30;;;38.20;37.60;;;;;;5038586;28;20842;-81
2023/06/16 11:36:25;;;;;;;0.40;0.40;;;38.30;38.30;;;;;;5037571;28;20455;-81
2023/06/16 11:38:55;;;;;;;1.00;0.87;;;38.60;38.20;;;;;;5038287;28;20505;-81
2023/06/16 11:41:23;;;;;;;0.40;0.30;;;38.80;37.30;;;;;;5038298;28;20544;-81
2023/06/16 11:43:51;;;;;;;0.40;0.30;;;38.80;37.50;;;;;;5038643;28;20466;-82
2023/06/16 11:46:21;;;;;;;0.40;0.30;;;38.70;37.10;;;;;;5038391;28;20947;-82
2023/06/16 11:48:48;;;;;;;0.67;0.67;;;38.60;36.10;;;;;;5038551;28;20475;-81
2023/06/16 11:51:16;;;;;;;0.40;0.30;;;38.50;38.20;;;;;;5037719;28;20484;-81
2023/06/16 11:53:44;;;;;;;0.70;0.70;;;38.40;37.90;;;;;;5038237;28;20447;-82
2023/06/16 11:56:14;;;;;;;0.50;0.40;;;38.50;38.10;;;;;;5038591;28;20449;-82
2023/06/16 11:58:43;;;;;;;24.80;12.60;;;38.50;38.10;;;;;;5030051;28;20499;-81
2023/06/16 12:01:13;;;;;;;0.40;0.30;;;38.80;38.50;;;;;;5038996;28;20456;-81
2023/06/16 12:03:41;;;;;;;0.40;0.30;;;38.70;37.20;;;;;;5038146;28;20452;-81
2023/06/16 12:06:08;;;;;;;0.67;0.50;;;38.50;38.30;;;;;;5036297;28;20451;-81
2023/06/16 12:08:38;;;;;;;0.50;0.50;;;38.70;37.70;;;;;;5036201;28;20464;-81
2023/06/16 12:11:06;;;;;;;0.40;0.40;;;38.90;37.60;;;;;;5037025;28;20447;-81
2023/06/16 12:13:34;;;;;;;0.67;0.67;;;38.50;35.80;;;;;;5036386;28;20514;-81
2023/06/16 12:16:01;;;;;;;0.40;0.40;;;38.40;37.80;;;;;;5037465;28;20451;-81
2023/06/16 12:18:28;;;;;;;0.40;0.30;;;38.80;38.20;;;;;;5035997;28;20566;-81
2023/06/16 12:20:55;;;;;;;0.40;0.30;;;39.10;38.70;;;;;;5036626;28;20527;-80
2023/06/16 12:23:22;;;;;;;0.40;0.40;;;39.20;36.60;;;;;;5036161;28;20543;-81
2023/06/16 12:25:51;;;;;;;0.40;0.30;;;39.00;37.00;;;;;;5036838;28;20483;-81
2023/06/16 12:28:20;;;;;;;0.40;0.30;;;38.80;35.70;;;;;;5036776;28;21069;-82
2023/06/16 12:30:47;;;;;;;2.00;1.90;;;38.90;36.50;;;;;;5036517;28;20820;-81
2023/06/16 12:33:15;;;;;;;0.40;0.30;;;38.50;36.20;;;;;;5036939;28;20498;-80
2023/06/16 12:35:42;;;;;;;0.40;0.30;;;38.60;39.10;;;;;;5036307;28;20444;-81
2023/06/16 12:38:09;;;;;;;0.50;0.40;;;38.80;36.90;;;;;;5041563;28;20879;-82
2023/06/16 12:40:36;;;;;;;0.47;0.43;;;38.90;37.00;;;;;;5036969;28;20451;-81
2023/06/16 12:43:24;;;;;;;0.50;0.50;;;38.90;36.00;;;;;;5038686;28;20449;-82
2023/06/16 12:45:51;;;;;;;0.40;0.40;;;38.70;36.00;;;;;;5032346;28;20534;-82
2023/06/16 12:48:18;;;;;;;0.40;0.30;;;38.60;36.10;;;;;;5038154;28;20463;-81
2023/06/16 12:50:44;;;;;;;0.50;0.50;;;38.50;35.50;;;;;;5038190;28;20466;-81